createdAt,value
2022-12-25T00:01:32.494Z,94.73
2022-12-25T00:06:33.852Z,94.06
2022-12-25T00:11:35.310Z,93.34
2022-12-25T00:16:36.650Z,93.89
2022-12-25T00:21:38.045Z,93.67
2022-12-25T00:26:39.344Z,94.30
2022-12-25T00:31:40.802Z,94.49
2022-12-25T00:36:42.471Z,94.65
2022-12-25T00:42:02.330Z,94.65
2022-12-25T00:47:04.291Z,94.04
2022-12-25T00:52:06.040Z,94.87
2022-12-25T00:57:07.420Z,94.43
2022-12-25T01:02:24.260Z,94.65
2022-12-25T01:07:26.805Z,95.11
2022-12-25T01:12:28.743Z,95.27
2022-12-25T01:17:30.119Z,95.08
2022-12-25T01:22:31.502Z,94.58
2022-12-25T01:27:33.705Z,94.92
2022-12-25T01:32:35.011Z,95.30
2022-12-25T01:37:36.339Z,94.96
2022-12-25T01:42:37.882Z,94.51
2022-12-25T01:47:39.284Z,95.13
2022-12-25T01:52:41.237Z,94.80
2022-12-25T01:57:43.658Z,94.73
2022-12-25T02:02:45.752Z,94.90
2022-12-25T02:07:48.944Z,95.01
2022-12-25T02:12:51.165Z,95.13
2022-12-25T02:18:12.033Z,95.41
2022-12-25T02:23:42.117Z,95.51
2022-12-25T02:28:52.126Z,95.50
2022-12-25T02:34:13.931Z,95.30
2022-12-25T02:39:54.835Z,95.02
2022-12-25T02:45:14.719Z,94.70
2022-12-25T02:50:35.316Z,94.73
2022-12-25T02:55:58.930Z,94.65
2022-12-25T03:01:27.239Z,94.69
2022-12-25T03:06:44.585Z,94.80
2022-12-25T03:11:47.965Z,95.01
2022-12-25T03:16:54.083Z,94.83
2022-12-25T03:22:14.932Z,94.50
2022-12-25T03:27:16.446Z,94.19
2022-12-25T03:32:20.877Z,94.58
2022-12-25T03:37:40.588Z,94.60
2022-12-25T03:43:05.668Z,94.71
2022-12-25T03:48:13.372Z,94.35
2022-12-25T03:53:48.503Z,94.37
2022-12-25T03:59:10.188Z,94.00
2022-12-25T04:04:30.268Z,94.72
2022-12-25T04:09:50.078Z,95.30
2022-12-25T04:15:09.867Z,94.73
2022-12-25T04:20:29.904Z,95.32
2022-12-25T04:25:49.633Z,95.73
2022-12-25T04:31:09.836Z,96.34
2022-12-25T04:36:12.398Z,96.01
2022-12-25T04:41:14.682Z,95.86
2022-12-25T04:46:16.183Z,95.37
2022-12-25T04:51:22.746Z,95.56
2022-12-25T04:56:24.067Z,95.38
2022-12-25T05:01:25.581Z,94.85
2022-12-25T05:06:27.572Z,95.16
2022-12-25T05:11:28.934Z,94.80
2022-12-25T05:16:30.442Z,95.32
2022-12-25T05:21:31.954Z,94.97
2022-12-25T05:26:33.376Z,95.68
2022-12-25T05:31:34.835Z,95.06
2022-12-25T05:36:37.001Z,94.86
2022-12-25T05:41:38.433Z,95.01
2022-12-25T05:46:39.977Z,94.81
2022-12-25T05:51:41.420Z,94.92
2022-12-25T05:56:42.796Z,95.10
2022-12-25T06:01:44.256Z,95.70
2022-12-25T06:06:45.669Z,96.31
2022-12-25T06:11:47.176Z,96.92
2022-12-25T06:16:52.211Z,96.99
2022-12-25T06:21:54.570Z,97.07
2022-12-25T06:26:56.007Z,97.67
2022-12-25T06:31:58.807Z,98.41
2022-12-25T06:37:00.226Z,98.67
2022-12-25T06:42:01.723Z,99.07
2022-12-25T06:47:03.130Z,98.70
2022-12-25T06:52:04.617Z,99.12
2022-12-25T06:57:05.989Z,99.07
2022-12-25T07:02:18.657Z,98.62
2022-12-25T07:07:21.426Z,99.60
2022-12-25T07:12:23.794Z,98.37
2022-12-25T07:17:25.272Z,98.43
2022-12-25T07:22:28.960Z,98.63
2022-12-25T07:27:30.474Z,98.44
2022-12-25T07:32:32.064Z,97.90
2022-12-25T07:37:33.430Z,97.81
2022-12-25T07:42:34.826Z,98.56
2022-12-25T07:47:36.191Z,98.04
2022-12-25T07:52:43.220Z,97.93
2022-12-25T07:57:45.107Z,97.46
2022-12-25T08:02:50.741Z,97.38
2022-12-25T08:07:57.618Z,97.12
2022-12-25T08:12:59.459Z,96.83
2022-12-25T08:18:00.761Z,96.22
2022-12-25T08:23:02.417Z,95.99
2022-12-25T08:28:04.023Z,95.71
2022-12-25T08:33:05.519Z,95.44
2022-12-25T08:38:06.896Z,95.59
2022-12-25T08:43:08.246Z,94.64
2022-12-25T08:48:10.634Z,94.53
2022-12-25T08:53:11.923Z,94.59
2022-12-25T08:58:14.683Z,93.91
2022-12-25T09:03:16.117Z,94.22
2022-12-25T09:08:17.586Z,94.26
2022-12-25T09:13:18.890Z,94.54
2022-12-25T09:18:20.240Z,93.60
2022-12-25T09:23:21.626Z,93.99
2022-12-25T09:28:23.122Z,93.06
2022-12-25T09:33:25.029Z,92.46
2022-12-25T09:38:27.106Z,92.59
2022-12-25T09:43:33.215Z,92.56
2022-12-25T09:48:39.974Z,93.32
2022-12-25T09:53:55.251Z,93.00
2022-12-25T09:58:56.749Z,93.11
2022-12-25T10:04:10.070Z,92.47
2022-12-25T10:09:35.323Z,91.77
2022-12-25T10:14:53.751Z,91.24
2022-12-25T10:20:18.354Z,89.56
2022-12-25T10:25:24.566Z,85.33
2022-12-25T10:30:28.198Z,84.31
2022-12-25T10:35:31.414Z,85.14
2022-12-25T10:41:04.025Z,85.97
2022-12-25T10:46:14.484Z,85.54
2022-12-25T10:51:36.847Z,86.23
2022-12-25T10:56:38.258Z,85.26
2022-12-25T11:01:39.778Z,85.42
2022-12-25T11:06:42.590Z,85.35
2022-12-25T11:11:47.307Z,84.37
2022-12-25T11:16:50.363Z,85.42
2022-12-25T11:21:57.510Z,83.85
2022-12-25T11:27:02.000Z,84.91
2022-12-25T11:32:05.591Z,85.55
2022-12-25T11:37:15.667Z,85.31
2022-12-25T11:42:26.313Z,85.11
2022-12-25T11:47:44.025Z,86.18
2022-12-25T11:52:47.304Z,85.60
2022-12-25T11:57:55.069Z,86.22
2022-12-25T12:03:02.092Z,86.34
2022-12-25T12:08:05.501Z,85.43
2022-12-25T12:13:44.346Z,83.17
2022-12-25T12:18:50.242Z,80.87
2022-12-25T12:24:13.708Z,80.60
2022-12-25T12:29:27.220Z,80.68
2022-12-25T12:34:37.143Z,81.25
2022-12-25T12:39:40.414Z,82.36
2022-12-25T12:44:42.429Z,82.20
2022-12-25T12:49:43.777Z,82.65
2022-12-25T12:55:12.929Z,81.88
2022-12-25T13:00:14.269Z,81.89
2022-12-25T13:05:15.698Z,81.76
2022-12-25T13:10:25.659Z,82.68
2022-12-25T13:15:31.633Z,82.49
2022-12-25T13:20:42.043Z,82.15
2022-12-25T13:25:51.863Z,82.86
2022-12-25T13:30:53.325Z,84.43
2022-12-25T13:35:55.121Z,85.00
2022-12-25T13:41:16.845Z,84.94
2022-12-25T13:46:26.210Z,85.32
2022-12-25T13:51:28.405Z,86.46
2022-12-25T13:56:30.571Z,86.56
2022-12-25T14:01:32.153Z,87.48
2022-12-25T14:06:33.778Z,88.24
2022-12-25T14:11:36.036Z,88.24
2022-12-25T14:16:37.867Z,88.49
2022-12-25T14:21:49.112Z,88.79
2022-12-25T14:26:58.322Z,88.10
2022-12-25T14:32:04.430Z,88.22
2022-12-25T14:37:13.071Z,88.75
2022-12-25T14:42:22.554Z,89.41
2022-12-25T14:47:24.537Z,89.38
2022-12-25T14:52:29.630Z,89.18
2022-12-25T14:57:38.717Z,89.32
2022-12-25T15:02:46.058Z,90.04
2022-12-25T15:07:58.798Z,90.41
2022-12-25T15:13:01.767Z,90.25
2022-12-25T15:18:04.768Z,90.99
2022-12-25T15:23:21.903Z,90.19
2022-12-25T15:28:23.581Z,90.05
2022-12-25T15:33:24.940Z,90.41
2022-12-25T15:38:26.300Z,90.59
2022-12-25T15:43:42.897Z,89.80
2022-12-25T15:48:44.319Z,89.83
2022-12-25T15:53:45.701Z,89.92
2022-12-25T15:58:47.007Z,90.61
2022-12-25T16:03:48.899Z,91.01
2022-12-25T16:08:50.597Z,91.11
2022-12-25T16:13:51.966Z,90.13
2022-12-25T16:18:53.282Z,89.84
2022-12-25T16:23:54.702Z,89.90
2022-12-25T16:28:56.004Z,90.67
2022-12-25T16:33:57.488Z,90.25
2022-12-25T16:38:59.026Z,91.07
2022-12-25T16:44:08.894Z,91.63
2022-12-25T16:49:10.303Z,91.36
2022-12-25T16:54:11.639Z,91.39
2022-12-25T16:59:12.974Z,91.12
2022-12-25T17:04:14.462Z,91.21
2022-12-25T17:09:15.852Z,91.10
2022-12-25T17:14:17.251Z,91.45
2022-12-25T17:19:20.863Z,90.82
2022-12-25T17:24:22.361Z,91.29
2022-12-25T17:29:24.974Z,91.79
2022-12-25T17:34:26.280Z,92.42
2022-12-25T17:39:27.683Z,91.82
2022-12-25T17:44:29.075Z,91.70
2022-12-25T17:49:30.546Z,92.03
2022-12-25T17:54:31.924Z,93.20
2022-12-25T17:59:33.417Z,93.52
2022-12-25T18:04:34.840Z,93.25
2022-12-25T18:09:36.363Z,93.61
2022-12-25T18:14:37.645Z,93.62
2022-12-25T18:19:39.423Z,93.08
2022-12-25T18:24:40.846Z,93.30
2022-12-25T18:29:42.204Z,93.76
2022-12-25T18:34:43.540Z,94.09
2022-12-25T18:39:44.957Z,94.31
2022-12-25T18:44:46.358Z,94.21
2022-12-25T18:49:48.445Z,94.61
2022-12-25T18:54:49.962Z,94.64
2022-12-25T18:59:51.423Z,95.16
2022-12-25T19:04:53.032Z,94.87
2022-12-25T19:09:54.476Z,94.27
2022-12-25T19:14:55.886Z,94.41
2022-12-25T19:19:57.261Z,94.47
2022-12-25T19:24:58.709Z,94.75
2022-12-25T19:30:00.255Z,94.79
2022-12-25T19:35:04.395Z,94.67
2022-12-25T19:40:06.593Z,94.61
2022-12-25T19:45:08.580Z,94.31
2022-12-25T19:50:10.166Z,94.19
2022-12-25T19:55:11.609Z,94.25
2022-12-25T20:00:13.346Z,93.19
2022-12-25T20:05:14.894Z,92.88
2022-12-25T20:10:16.323Z,93.46
2022-12-25T20:15:17.671Z,93.55
2022-12-25T20:20:18.967Z,93.79
2022-12-25T20:25:20.363Z,93.72
2022-12-25T20:30:21.704Z,93.30
2022-12-25T20:35:23.378Z,93.34
2022-12-25T20:40:24.787Z,93.10
2022-12-25T20:45:26.174Z,93.40
2022-12-25T20:50:27.543Z,93.34
2022-12-25T20:55:28.915Z,93.31
2022-12-25T21:00:30.293Z,92.83
2022-12-25T21:05:34.135Z,92.54
2022-12-25T21:10:35.478Z,92.04
2022-12-25T21:15:37.327Z,91.61
2022-12-25T21:20:38.767Z,90.88
2022-12-25T21:25:40.108Z,90.67
2022-12-25T21:30:42.342Z,89.63
2022-12-25T21:35:43.735Z,89.08
2022-12-25T21:40:45.068Z,88.91
2022-12-25T21:45:46.484Z,88.77
2022-12-25T21:51:06.651Z,88.58
2022-12-25T21:56:08.023Z,88.04
2022-12-25T22:01:10.943Z,88.19
2022-12-25T22:06:48.272Z,88.22
2022-12-25T22:12:08.117Z,88.02
2022-12-25T22:17:28.693Z,87.79
2022-12-25T22:22:30.841Z,87.24
2022-12-25T22:27:34.214Z,86.87
2022-12-25T22:32:35.794Z,86.37
2022-12-25T22:37:37.218Z,86.31
2022-12-25T22:42:38.647Z,86.11
2022-12-25T22:47:40.342Z,85.83
2022-12-25T22:52:42.654Z,85.31
2022-12-25T22:57:44.010Z,85.30
2022-12-25T23:02:45.517Z,85.03
2022-12-25T23:07:46.941Z,84.69
2022-12-25T23:13:06.795Z,83.97
2022-12-25T23:18:27.514Z,83.91
2022-12-25T23:23:47.276Z,83.58
2022-12-25T23:29:07.404Z,82.98
2022-12-25T23:34:09.873Z,82.99
2022-12-25T23:39:11.453Z,83.01
2022-12-25T23:44:13.589Z,82.71
2022-12-25T23:49:15.166Z,82.59
2022-12-25T23:54:20.124Z,82.25
2022-12-25T23:59:21.561Z,82.50
